aviador You're here:

YABA Decoded Metar

in
Report Time2017-05-23 20:00:00
UTC Time2017-05-23 20:40:00
Flight Rules vfr VFR
Wind310° at 08 kt
W.Decomp.*RWY 32: 7.9 kt HW 1.4 kt LCW
RWY 23: 1.4 kt HW 7.9 kt RCW
W.Rank310° ranks 1
Current wind is below 310° avg. (8.3)
Visibility9999 m
Phenomena:N/A
Clouds:Scattered 051 Hf
CeilingNone
Temp13°C
Dew Point13°C (100% RH)
AAT11.1°C
QNH1018 hPa
Raw Report
METAR YABA 232000Z AUTO 31008KT 9999 // SCT051 13/13 Q1018=

Extra information for YABA:More info

Social comments